EGXT

RAF Wittering Airport

Wittering, United Kingdom
METAR EGXT 251850Z AUTO 19007KT 9999 NCD 11/06 Q1033
Observed Flight Rules
Sep-25 @ 18:50 UTC (26 minutes ago) Visual Flight Rules
Wind Visibility Clouds
190° at 7 knots 10,000+ meters
  • Clear skies
Temperatures Readings
Current 11°C / 52°F
Dewpoint 6°C / 43°F
Humidity 72%
Altimeter 30.5" Hg
Pressure 1033 hPa
Elevation 84
METAR EGXT 251850Z AUTO 19007KT 9999 NCD 11/06 Q1033
Observed Flight Rules
Sep-25 @ 18:50 UTC
(26 minutes ago)
VFR
Wind Visibility
190° at 7 knots 10,000+ meters
Clouds
  • Clear skies
Temperature Dewpoint
11°C / 52°F 6°C / 43°F
Humidity Altimeter Pressure
72% 30.5" Hg 1033 hPa